Santo Amaro das Brotas, Brazil
Current Conditions -  °F | °C
As of 9:00 AM on Sunday 25 Jan 2015 (Local Time) from SBAR Reporting Station
Scattered Clouds Scattered Clouds  
Wind Chill: 82°   Ceiling: Unl
Heat Index: 88°   Visibility: 6mi
Dew Point: 73°   Wind: 10mph
Humidity: 74%   Direction: 100°E
Pressure: 29.97"   Gusts: NA
Location:  10.79°S, 37.05°W
Report Text: SBAR 251200Z 10009KT 9999 SCT017 28/23 Q1015
Loading
Personal Weather Stations






























Interactive Weather Map New forecast layout! Learn more

10-Day Weather Forecast

Advertisements
Track Severe Weather on mobile